sensor_id;sensor_type;location;lat;lon;timestamp;pressure;altitude;pressure_sealevel;temperature;humidity
61874;BME280;49692;55.052;73.310;2022-09-23T00:02:21;100971.31;;;12.02;63.04
61874;BME280;49692;55.052;73.310;2022-09-23T00:04:48;100978.03;;;12.12;62.69
61874;BME280;49692;55.052;73.310;2022-09-23T00:07:14;100974.28;;;12.20;62.07
61874;BME280;49692;55.052;73.310;2022-09-23T00:09:50;100967.31;;;12.19;62.17
61874;BME280;49692;55.052;73.310;2022-09-23T00:12:17;100964.72;;;12.17;62.53
61874;BME280;49692;55.052;73.310;2022-09-23T00:14:44;100970.75;;;12.21;62.09
61874;BME280;49692;55.052;73.310;2022-09-23T00:17:11;100964.78;;;12.16;62.03
61874;BME280;49692;55.052;73.310;2022-09-23T00:19:38;100964.94;;;12.09;62.22
61874;BME280;49692;55.052;73.310;2022-09-23T00:22:08;100965.78;;;12.11;62.69
61874;BME280;49692;55.052;73.310;2022-09-23T00:24:35;100968.34;;;12.13;62.20
61874;BME280;49692;55.052;73.310;2022-09-23T00:27:03;100963.75;;;12.20;62.59
61874;BME280;49692;55.052;73.310;2022-09-23T00:29:30;100969.22;;;12.13;62.27
61874;BME280;49692;55.052;73.310;2022-09-23T00:31:56;100972.09;;;12.06;62.63
61874;BME280;49692;55.052;73.310;2022-09-23T00:34:23;100976.47;;;12.05;62.38
61874;BME280;49692;55.052;73.310;2022-09-23T00:36:49;100970.53;;;11.98;63.02
61874;BME280;49692;55.052;73.310;2022-09-23T00:39:18;100979.47;;;12.23;62.45
61874;BME280;49692;55.052;73.310;2022-09-23T00:41:54;100979.94;;;12.07;62.76
61874;BME280;49692;55.052;73.310;2022-09-23T00:44:58;100976.00;;;12.22;62.59
61874;BME280;49692;55.052;73.310;2022-09-23T00:50:23;100976.94;;;12.20;62.52
61874;BME280;49692;55.052;73.310;2022-09-23T00:52:54;100980.09;;;12.03;63.42
61874;BME280;49692;55.052;73.310;2022-09-23T00:55:25;100981.97;;;11.99;63.06
61874;BME280;49692;55.052;73.310;2022-09-23T00:57:55;100974.97;;;11.98;63.60
61874;BME280;49692;55.052;73.310;2022-09-23T01:00:24;100971.19;;;11.75;64.01
61874;BME280;49692;55.052;73.310;2022-09-23T01:02:54;100973.94;;;11.72;64.17
61874;BME280;49692;55.052;73.310;2022-09-23T01:05:27;100973.00;;;11.75;64.02
61874;BME280;49692;55.052;73.310;2022-09-23T01:07:57;100970.19;;;11.81;63.83
61874;BME280;49692;55.052;73.310;2022-09-23T01:10:28;100973.75;;;11.78;64.23
61874;BME280;49692;55.052;73.310;2022-09-23T01:16:19;100979.84;;;11.80;64.09
61874;BME280;49692;55.052;73.310;2022-09-23T01:19:09;100981.06;;;11.68;64.97
61874;BME280;49692;55.052;73.310;2022-09-23T01:27:31;100965.50;;;11.59;64.93
61874;BME280;49692;55.052;73.310;2022-09-23T01:33:14;100971.16;;;11.45;65.27
61874;BME280;49692;55.052;73.310;2022-09-23T01:38:54;100977.66;;;11.65;64.32
61874;BME280;49692;55.052;73.310;2022-09-23T01:42:00;100977.84;;;11.59;64.28
61874;BME280;49692;55.052;73.310;2022-09-23T01:47:43;100987.97;;;11.73;63.95
61874;BME280;49692;55.052;73.310;2022-09-23T01:50:35;100991.47;;;11.73;64.26
61874;BME280;49692;55.052;73.310;2022-09-23T01:53:30;100989.84;;;11.67;64.65
61874;BME280;49692;55.052;73.310;2022-09-23T01:56:34;100996.00;;;11.68;64.22
61874;BME280;49692;55.052;73.310;2022-09-23T01:59:11;100995.25;;;11.63;64.06
61874;BME280;49692;55.052;73.310;2022-09-23T02:01:50;100998.28;;;11.80;65.29
61874;BME280;49692;55.052;73.310;2022-09-23T02:04:23;100997.16;;;11.89;64.95
61874;BME280;49692;55.052;73.310;2022-09-23T02:07:04;101000.56;;;11.93;63.54
61874;BME280;49692;55.052;73.310;2022-09-23T02:09:37;101007.44;;;11.98;65.06
61874;BME280;49692;55.052;73.310;2022-09-23T02:12:14;101005.53;;;12.04;63.49
61874;BME280;49692;55.052;73.310;2022-09-23T02:14:57;101007.63;;;11.92;62.58
61874;BME280;49692;55.052;73.310;2022-09-23T02:17:35;101007.63;;;11.92;62.80
61874;BME280;49692;55.052;73.310;2022-09-23T02:20:09;101013.72;;;11.94;62.81
61874;BME280;49692;55.052;73.310;2022-09-23T02:23:00;101018.72;;;12.04;62.70
61874;BME280;49692;55.052;73.310;2022-09-23T02:28:27;101000.19;;;12.07;62.88
61874;BME280;49692;55.052;73.310;2022-09-23T02:31:08;101004.41;;;12.12;63.14
61874;BME280;49692;55.052;73.310;2022-09-23T02:33:53;101004.31;;;12.16;62.53
61874;BME280;49692;55.052;73.310;2022-09-23T02:36:26;101000.88;;;12.12;62.59
61874;BME280;49692;55.052;73.310;2022-09-23T02:38:59;100991.84;;;12.21;62.09
61874;BME280;49692;55.052;73.310;2022-09-23T02:41:44;100998.72;;;12.26;62.14
61874;BME280;49692;55.052;73.310;2022-09-23T02:44:17;100998.38;;;12.37;61.88
61874;BME280;49692;55.052;73.310;2022-09-23T02:46:45;100996.56;;;12.39;62.60
61874;BME280;49692;55.052;73.310;2022-09-23T02:49:23;100991.97;;;12.46;62.02
61874;BME280;49692;55.052;73.310;2022-09-23T02:52:02;101001.94;;;12.65;61.65
61874;BME280;49692;55.052;73.310;2022-09-23T02:54:42;101003.16;;;12.54;61.58
61874;BME280;49692;55.052;73.310;2022-09-23T02:57:09;101002.13;;;12.58;60.99
61874;BME280;49692;55.052;73.310;2022-09-23T02:59:43;100994.78;;;12.68;60.86
61874;BME280;49692;55.052;73.310;2022-09-23T03:05:06;100993.44;;;13.10;60.70
61874;BME280;49692;55.052;73.310;2022-09-23T03:13:12;101010.66;;;13.22;59.71
61874;BME280;49692;55.052;73.310;2022-09-23T03:16:07;101010.88;;;13.41;59.57
61874;BME280;49692;55.052;73.310;2022-09-23T03:18:48;101010.63;;;13.49;59.37
61874;BME280;49692;55.052;73.310;2022-09-23T03:21:47;101016.88;;;13.46;59.26
61874;BME280;49692;55.052;73.310;2022-09-23T03:24:21;101015.69;;;13.55;59.13
61874;BME280;49692;55.052;73.310;2022-09-23T03:26:50;101005.88;;;13.59;59.22
61874;BME280;49692;55.052;73.310;2022-09-23T03:29:20;101013.53;;;13.67;58.81
61874;BME280;49692;55.052;73.310;2022-09-23T03:31:48;101000.34;;;13.65;57.31
61874;BME280;49692;55.052;73.310;2022-09-23T03:34:21;101004.13;;;13.83;57.28
61874;BME280;49692;55.052;73.310;2022-09-23T03:37:09;101008.97;;;13.95;57.11
61874;BME280;49692;55.052;73.310;2022-09-23T03:39:46;101001.53;;;14.05;57.15
61874;BME280;49692;55.052;73.310;2022-09-23T03:42:25;101003.56;;;13.99;56.42
61874;BME280;49692;55.052;73.310;2022-09-23T03:45:06;101011.97;;;14.08;55.74
61874;BME280;49692;55.052;73.310;2022-09-23T03:47:35;101008.41;;;14.09;55.72
61874;BME280;49692;55.052;73.310;2022-09-23T03:50:06;101005.38;;;14.20;54.96
61874;BME280;49692;55.052;73.310;2022-09-23T03:52:32;101008.75;;;14.24;55.14
61874;BME280;49692;55.052;73.310;2022-09-23T03:54:59;101011.34;;;14.25;55.67
61874;BME280;49692;55.052;73.310;2022-09-23T03:57:28;101004.53;;;14.20;55.78
61874;BME280;49692;55.052;73.310;2022-09-23T03:59:54;101002.63;;;14.23;55.71
61874;BME280;49692;55.052;73.310;2022-09-23T04:02:21;101017.34;;;14.31;55.54
61874;BME280;49692;55.052;73.310;2022-09-23T04:04:47;101006.97;;;14.48;55.43
61874;BME280;49692;55.052;73.310;2022-09-23T04:07:15;101016.41;;;14.55;55.80
61874;BME280;49692;55.052;73.310;2022-09-23T04:09:45;101009.81;;;14.66;55.08
61874;BME280;49692;55.052;73.310;2022-09-23T04:12:14;101009.69;;;14.69;55.47
61874;BME280;49692;55.052;73.310;2022-09-23T04:14:42;101010.91;;;14.82;55.31
61874;BME280;49692;55.052;73.310;2022-09-23T04:17:09;101010.28;;;14.98;55.23
61874;BME280;49692;55.052;73.310;2022-09-23T04:19:37;101013.63;;;15.03;56.01
61874;BME280;49692;55.052;73.310;2022-09-23T04:22:04;101005.63;;;15.25;55.53
61874;BME280;49692;55.052;73.310;2022-09-23T04:24:35;101010.41;;;15.38;55.04
61874;BME280;49692;55.052;73.310;2022-09-23T04:27:04;101012.97;;;15.39;53.83
61874;BME280;49692;55.052;73.310;2022-09-23T04:29:31;101006.53;;;15.45;53.55
61874;BME280;49692;55.052;73.310;2022-09-23T04:31:57;101007.88;;;15.55;53.86
61874;BME280;49692;55.052;73.310;2022-09-23T04:34:34;101017.03;;;15.69;54.43
61874;BME280;49692;55.052;73.310;2022-09-23T04:37:01;101014.19;;;15.73;53.17
61874;BME280;49692;55.052;73.310;2022-09-23T04:39:27;101023.44;;;15.84;53.47
61874;BME280;49692;55.052;73.310;2022-09-23T04:41:55;101026.50;;;15.74;53.80
61874;BME280;49692;55.052;73.310;2022-09-23T04:44:25;101015.56;;;16.01;53.71
61874;BME280;49692;55.052;73.310;2022-09-23T04:47:14;101014.00;;;15.97;54.04
61874;BME280;49692;55.052;73.310;2022-09-23T04:49:44;101026.84;;;16.06;52.74
61874;BME280;49692;55.052;73.310;2022-09-23T04:52:12;101026.28;;;16.19;51.40
61874;BME280;49692;55.052;73.310;2022-09-23T04:54:39;101032.38;;;16.21;51.54
61874;BME280;49692;55.052;73.310;2022-09-23T04:57:06;101023.47;;;16.22;51.54
61874;BME280;49692;55.052;73.310;2022-09-23T04:59:36;101020.69;;;16.25;51.92
61874;BME280;49692;55.052;73.310;2022-09-23T05:02:07;101020.38;;;16.31;51.75
61874;BME280;49692;55.052;73.310;2022-09-23T05:04:37;101020.81;;;16.41;51.87
61874;BME280;49692;55.052;73.310;2022-09-23T05:07:05;101018.69;;;16.49;51.72
61874;BME280;49692;55.052;73.310;2022-09-23T05:09:32;101014.78;;;16.57;51.38
61874;BME280;49692;55.052;73.310;2022-09-23T05:11:59;101013.63;;;16.62;51.28
61874;BME280;49692;55.052;73.310;2022-09-23T05:14:25;101008.72;;;16.72;50.76
61874;BME280;49692;55.052;73.310;2022-09-23T05:16:53;101012.03;;;16.77;49.80
61874;BME280;49692;55.052;73.310;2022-09-23T05:19:19;101015.19;;;16.85;49.92
61874;BME280;49692;55.052;73.310;2022-09-23T05:21:46;101012.09;;;16.95;50.35
61874;BME280;49692;55.052;73.310;2022-09-23T05:24:16;100995.19;;;16.96;50.65
61874;BME280;49692;55.052;73.310;2022-09-23T05:26:46;100991.31;;;17.21;50.18
61874;BME280;49692;55.052;73.310;2022-09-23T05:29:16;100987.72;;;17.22;49.91
61874;BME280;49692;55.052;73.310;2022-09-23T05:31:43;100985.59;;;17.11;49.36
61874;BME280;49692;55.052;73.310;2022-09-23T05:34:33;100989.44;;;17.23;49.71
61874;BME280;49692;55.052;73.310;2022-09-23T05:37:05;100988.16;;;17.30;49.70
61874;BME280;49692;55.052;73.310;2022-09-23T05:39:55;100986.00;;;17.38;49.67
61874;BME280;49692;55.052;73.310;2022-09-23T05:42:25;100985.75;;;17.43;49.12
61874;BME280;49692;55.052;73.310;2022-09-23T05:44:57;100992.56;;;17.65;48.53
61874;BME280;49692;55.052;73.310;2022-09-23T05:47:29;100991.97;;;17.59;48.90
61874;BME280;49692;55.052;73.310;2022-09-23T05:49:55;100990.41;;;17.55;48.54
61874;BME280;49692;55.052;73.310;2022-09-23T05:52:28;100979.13;;;17.68;48.16
61874;BME280;49692;55.052;73.310;2022-09-23T05:55:01;100987.72;;;17.73;48.74
61874;BME280;49692;55.052;73.310;2022-09-23T05:57:27;100988.09;;;17.83;48.86
61874;BME280;49692;55.052;73.310;2022-09-23T06:00:05;100970.16;;;17.86;48.68
61874;BME280;49692;55.052;73.310;2022-09-23T06:02:46;100981.72;;;17.85;47.75
61874;BME280;49692;55.052;73.310;2022-09-23T06:05:14;100971.00;;;17.87;47.47
61874;BME280;49692;55.052;73.310;2022-09-23T06:07:41;100975.16;;;17.92;47.27
61874;BME280;49692;55.052;73.310;2022-09-23T06:10:25;100966.78;;;18.00;47.57
61874;BME280;49692;55.052;73.310;2022-09-23T06:12:58;100964.13;;;18.16;47.67
61874;BME280;49692;55.052;73.310;2022-09-23T06:15:26;100963.34;;;18.30;47.60
61874;BME280;49692;55.052;73.310;2022-09-23T06:18:06;100959.06;;;18.44;45.81
61874;BME280;49692;55.052;73.310;2022-09-23T06:20:40;100959.97;;;18.59;45.16
61874;BME280;49692;55.052;73.310;2022-09-23T06:23:19;100958.19;;;18.90;45.81
61874;BME280;49692;55.052;73.310;2022-09-23T06:26:02;100959.63;;;19.26;44.37
61874;BME280;49692;55.052;73.310;2022-09-23T06:28:39;100959.38;;;19.45;44.56
61874;BME280;49692;55.052;73.310;2022-09-23T06:31:10;100974.78;;;19.54;44.34
61874;BME280;49692;55.052;73.310;2022-09-23T06:33:50;100962.69;;;19.49;45.35
61874;BME280;49692;55.052;73.310;2022-09-23T06:36:22;100961.09;;;19.46;45.56
61874;BME280;49692;55.052;73.310;2022-09-23T06:38:49;100960.31;;;19.44;44.69
61874;BME280;49692;55.052;73.310;2022-09-23T06:41:18;100954.81;;;19.47;45.54
61874;BME280;49692;55.052;73.310;2022-09-23T06:43:47;100948.81;;;19.72;44.19
61874;BME280;49692;55.052;73.310;2022-09-23T06:46:16;100941.56;;;19.74;43.52
61874;BME280;49692;55.052;73.310;2022-09-23T06:48:42;100934.59;;;19.72;42.66
61874;BME280;49692;55.052;73.310;2022-09-23T06:51:15;100925.19;;;19.52;42.43
61874;BME280;49692;55.052;73.310;2022-09-23T06:53:46;100930.91;;;19.60;42.60
61874;BME280;49692;55.052;73.310;2022-09-23T06:56:18;100927.66;;;19.69;42.01
61874;BME280;49692;55.052;73.310;2022-09-23T06:58:53;100921.47;;;19.98;43.17
61874;BME280;49692;55.052;73.310;2022-09-23T07:01:22;100932.13;;;19.98;42.86
61874;BME280;49692;55.052;73.310;2022-09-23T07:03:49;100929.69;;;19.93;42.68
61874;BME280;49692;55.052;73.310;2022-09-23T07:06:19;100935.00;;;19.95;42.97
61874;BME280;49692;55.052;73.310;2022-09-23T07:08:49;100928.03;;;19.63;44.25
61874;BME280;49692;55.052;73.310;2022-09-23T07:11:21;100946.63;;;19.50;42.28
61874;BME280;49692;55.052;73.310;2022-09-23T07:13:49;100932.03;;;19.56;41.99
61874;BME280;49692;55.052;73.310;2022-09-23T07:16:16;100936.50;;;19.55;41.92
61874;BME280;49692;55.052;73.310;2022-09-23T07:19:10;100935.75;;;19.82;42.29
61874;BME280;49692;55.052;73.310;2022-09-23T07:21:41;100926.59;;;19.72;41.99
61874;BME280;49692;55.052;73.310;2022-09-23T07:24:08;100938.81;;;19.62;41.76
61874;BME280;49692;55.052;73.310;2022-09-23T07:26:40;100929.84;;;19.63;42.39
61874;BME280;49692;55.052;73.310;2022-09-23T07:29:11;100926.56;;;19.86;42.58
61874;BME280;49692;55.052;73.310;2022-09-23T07:31:39;100939.84;;;19.73;41.82
61874;BME280;49692;55.052;73.310;2022-09-23T07:34:08;100925.81;;;19.84;41.51
61874;BME280;49692;55.052;73.310;2022-09-23T07:36:40;100931.75;;;19.75;41.57
61874;BME280;49692;55.052;73.310;2022-09-23T07:39:09;100926.03;;;19.81;41.06
61874;BME280;49692;55.052;73.310;2022-09-23T07:41:36;100918.38;;;19.89;41.19
61874;BME280;49692;55.052;73.310;2022-09-23T07:44:03;100927.25;;;19.76;42.56
61874;BME280;49692;55.052;73.310;2022-09-23T07:46:33;100935.56;;;19.56;42.87
61874;BME280;49692;55.052;73.310;2022-09-23T07:49:00;100912.72;;;19.67;44.17
61874;BME280;49692;55.052;73.310;2022-09-23T07:51:33;100899.69;;;19.89;42.15
61874;BME280;49692;55.052;73.310;2022-09-23T07:54:04;100904.72;;;20.09;42.15
61874;BME280;49692;55.052;73.310;2022-09-23T07:56:35;100897.34;;;20.27;41.47
61874;BME280;49692;55.052;73.310;2022-09-23T07:59:07;100889.38;;;20.40;41.32
61874;BME280;49692;55.052;73.310;2022-09-23T08:01:41;100887.88;;;20.36;41.14
61874;BME280;49692;55.052;73.310;2022-09-23T08:06:42;100873.59;;;20.49;40.66
61874;BME280;49692;55.052;73.310;2022-09-23T08:09:10;100872.44;;;20.54;40.11
61874;BME280;49692;55.052;73.310;2022-09-23T08:11:38;100863.44;;;20.42;39.36
61874;BME280;49692;55.052;73.310;2022-09-23T08:14:11;100874.16;;;20.55;40.69
61874;BME280;49692;55.052;73.310;2022-09-23T08:16:42;100881.72;;;20.61;42.18
61874;BME280;49692;55.052;73.310;2022-09-23T08:19:11;100867.84;;;20.56;41.43
61874;BME280;49692;55.052;73.310;2022-09-23T08:21:40;100866.25;;;20.66;41.42
61874;BME280;49692;55.052;73.310;2022-09-23T08:24:17;100867.03;;;20.81;39.92
61874;BME280;49692;55.052;73.310;2022-09-23T08:26:49;100860.59;;;20.71;40.16
61874;BME280;49692;55.052;73.310;2022-09-23T08:29:30;100853.75;;;20.67;39.93
61874;BME280;49692;55.052;73.310;2022-09-23T08:31:57;100849.19;;;20.82;40.93
61874;BME280;49692;55.052;73.310;2022-09-23T08:34:26;100838.25;;;20.72;40.94
61874;BME280;49692;55.052;73.310;2022-09-23T08:36:57;100843.72;;;20.83;41.38
61874;BME280;49692;55.052;73.310;2022-09-23T08:39:29;100853.69;;;20.81;40.39
61874;BME280;49692;55.052;73.310;2022-09-23T08:42:19;100858.63;;;21.00;40.32
61874;BME280;49692;55.052;73.310;2022-09-23T08:44:54;100859.16;;;20.92;39.08
61874;BME280;49692;55.052;73.310;2022-09-23T08:50:22;100870.38;;;20.98;39.73
61874;BME280;49692;55.052;73.310;2022-09-23T08:52:53;100879.69;;;21.05;39.56
61874;BME280;49692;55.052;73.310;2022-09-23T08:55:28;100887.19;;;21.13;39.43
61874;BME280;49692;55.052;73.310;2022-09-23T09:00:39;100880.22;;;21.23;39.49
61874;BME280;49692;55.052;73.310;2022-09-23T09:03:45;100882.34;;;21.31;38.51
61874;BME280;49692;55.052;73.310;2022-09-23T09:06:33;100877.53;;;21.36;38.75
61874;BME280;49692;55.052;73.310;2022-09-23T09:09:29;100858.28;;;21.31;38.29
61874;BME280;49692;55.052;73.310;2022-09-23T09:12:10;100863.97;;;21.26;38.48
61874;BME280;49692;55.052;73.310;2022-09-23T09:15:01;100855.94;;;21.39;38.22
61874;BME280;49692;55.052;73.310;2022-09-23T09:17:54;100853.00;;;21.42;39.03
61874;BME280;49692;55.052;73.310;2022-09-23T09:28:21;100852.47;;;21.50;37.29
61874;BME280;49692;55.052;73.310;2022-09-23T09:31:16;100852.06;;;21.43;38.05
61874;BME280;49692;55.052;73.310;2022-09-23T09:37:24;100859.94;;;21.58;37.53
61874;BME280;49692;55.052;73.310;2022-09-23T09:39:56;100850.78;;;21.49;39.11
61874;BME280;49692;55.052;73.310;2022-09-23T09:42:36;100834.91;;;21.59;38.73
61874;BME280;49692;55.052;73.310;2022-09-23T09:53:23;100834.47;;;21.65;38.73
61874;BME280;49692;55.052;73.310;2022-09-23T09:56:00;100832.84;;;21.75;39.02
61874;BME280;49692;55.052;73.310;2022-09-23T09:58:35;100833.06;;;21.72;40.41
61874;BME280;49692;55.052;73.310;2022-09-23T10:01:07;100831.34;;;21.71;39.70
61874;BME280;49692;55.052;73.310;2022-09-23T10:03:55;100826.28;;;21.92;40.01
61874;BME280;49692;55.052;73.310;2022-09-23T10:06:35;100814.22;;;21.74;39.36
61874;BME280;49692;55.052;73.310;2022-09-23T10:09:09;100822.63;;;21.93;38.55
61874;BME280;49692;55.052;73.310;2022-09-23T10:11:39;100816.13;;;21.84;39.03
61874;BME280;49692;55.052;73.310;2022-09-23T10:14:17;100818.06;;;21.82;38.71
61874;BME280;49692;55.052;73.310;2022-09-23T10:17:02;100821.59;;;22.07;37.89
61874;BME280;49692;55.052;73.310;2022-09-23T10:19:34;100815.50;;;22.05;37.75
61874;BME280;49692;55.052;73.310;2022-09-23T10:22:16;100811.28;;;22.14;37.16
61874;BME280;49692;55.052;73.310;2022-09-23T10:24:48;100811.31;;;22.25;38.00
61874;BME280;49692;55.052;73.310;2022-09-23T10:27:31;100801.22;;;22.29;38.11
61874;BME280;49692;55.052;73.310;2022-09-23T10:30:25;100803.78;;;22.30;36.72
61874;BME280;49692;55.052;73.310;2022-09-23T10:32:53;100800.59;;;22.25;36.70
61874;BME280;49692;55.052;73.310;2022-09-23T10:35:21;100799.03;;;22.34;37.13
61874;BME280;49692;55.052;73.310;2022-09-23T10:38:02;100799.09;;;22.45;36.39
61874;BME280;49692;55.052;73.310;2022-09-23T10:46:16;100795.56;;;22.56;37.32
61874;BME280;49692;55.052;73.310;2022-09-23T10:49:30;100787.25;;;22.72;35.95
61874;BME280;49692;55.052;73.310;2022-09-23T10:55:10;100782.56;;;22.63;36.43
61874;BME280;49692;55.052;73.310;2022-09-23T11:01:25;100775.84;;;22.57;36.51
61874;BME280;49692;55.052;73.310;2022-09-23T11:04:29;100770.56;;;22.69;38.86
61874;BME280;49692;55.052;73.310;2022-09-23T11:07:11;100769.13;;;22.52;40.54
61874;BME280;49692;55.052;73.310;2022-09-23T11:23:46;100755.03;;;21.78;45.26
61874;BME280;49692;55.052;73.310;2022-09-23T11:27:01;100755.25;;;21.75;45.21
61874;BME280;49692;55.052;73.310;2022-09-23T11:35:43;100747.75;;;21.80;44.27
61874;BME280;49692;55.052;73.310;2022-09-23T11:38:25;100747.19;;;21.99;43.41
61874;BME280;49692;55.052;73.310;2022-09-23T11:43:41;100750.28;;;21.82;43.26
61874;BME280;49692;55.052;73.310;2022-09-23T11:46:22;100745.41;;;21.76;42.74
61874;BME280;49692;55.052;73.310;2022-09-23T11:49:01;100754.19;;;21.65;43.43
61874;BME280;49692;55.052;73.310;2022-09-23T11:52:04;100751.25;;;21.56;45.28
61874;BME280;49692;55.052;73.310;2022-09-23T11:55:34;100749.56;;;21.43;44.99
61874;BME280;49692;55.052;73.310;2022-09-23T11:57:53;100747.06;;;21.28;45.79
61874;BME280;49692;55.052;73.310;2022-09-23T12:00:32;100740.34;;;21.22;45.68
61874;BME280;49692;55.052;73.310;2022-09-23T12:03:24;100753.09;;;21.43;45.35
61874;BME280;49692;55.052;73.310;2022-09-23T12:06:00;100750.81;;;21.50;43.98
61874;BME280;49692;55.052;73.310;2022-09-23T12:08:31;100753.81;;;21.58;44.61
61874;BME280;49692;55.052;73.310;2022-09-23T12:19:46;100747.84;;;21.54;44.75
61874;BME280;49692;55.052;73.310;2022-09-23T12:22:42;100744.53;;;21.14;47.08
61874;BME280;49692;55.052;73.310;2022-09-23T12:25:36;100753.09;;;20.80;47.17
61874;BME280;49692;55.052;73.310;2022-09-23T12:28:16;100754.38;;;20.61;48.42
61874;BME280;49692;55.052;73.310;2022-09-23T12:30:59;100764.41;;;20.45;48.12
61874;BME280;49692;55.052;73.310;2022-09-23T12:33:28;100752.75;;;20.20;48.45
61874;BME280;49692;55.052;73.310;2022-09-23T12:36:08;100760.31;;;20.13;49.08
61874;BME280;49692;55.052;73.310;2022-09-23T12:38:51;100767.44;;;19.85;50.03
61874;BME280;49692;55.052;73.310;2022-09-23T12:41:39;100760.69;;;19.80;49.91
61874;BME280;49692;55.052;73.310;2022-09-23T12:46:45;100762.81;;;19.47;50.95
61874;BME280;49692;55.052;73.310;2022-09-23T12:49:35;100765.22;;;19.37;51.11
61874;BME280;49692;55.052;73.310;2022-09-23T12:52:12;100762.72;;;19.34;50.92
61874;BME280;49692;55.052;73.310;2022-09-23T12:54:51;100762.47;;;19.10;51.25
61874;BME280;49692;55.052;73.310;2022-09-23T13:05:55;100770.94;;;18.88;52.00
61874;BME280;49692;55.052;73.310;2022-09-23T13:08:45;100766.75;;;18.69;52.62
61874;BME280;49692;55.052;73.310;2022-09-23T13:11:34;100766.16;;;18.64;53.29
61874;BME280;49692;55.052;73.310;2022-09-23T13:14:21;100762.53;;;18.50;53.66
61874;BME280;49692;55.052;73.310;2022-09-23T13:16:49;100765.34;;;18.33;53.58
61874;BME280;49692;55.052;73.310;2022-09-23T13:22:10;100757.53;;;18.30;53.84
61874;BME280;49692;55.052;73.310;2022-09-23T13:24:40;100753.25;;;18.13;54.30
61874;BME280;49692;55.052;73.310;2022-09-23T13:27:25;100760.06;;;18.17;54.58
61874;BME280;49692;55.052;73.310;2022-09-23T13:30:00;100763.09;;;18.11;53.91
61874;BME280;49692;55.052;73.310;2022-09-23T13:32:39;100752.56;;;17.93;54.08
61874;BME280;49692;55.052;73.310;2022-09-23T13:37:47;100761.75;;;17.87;54.84
61874;BME280;49692;55.052;73.310;2022-09-23T13:40:25;100753.53;;;17.76;55.06
61874;BME280;49692;55.052;73.310;2022-09-23T13:43:06;100756.19;;;17.76;54.94
61874;BME280;49692;55.052;73.310;2022-09-23T13:45:39;100761.34;;;17.63;54.83
61874;BME280;49692;55.052;73.310;2022-09-23T13:48:29;100763.22;;;17.61;54.23
61874;BME280;49692;55.052;73.310;2022-09-23T13:51:14;100761.78;;;17.55;54.76
61874;BME280;49692;55.052;73.310;2022-09-23T13:53:54;100760.00;;;17.56;54.31
61874;BME280;49692;55.052;73.310;2022-09-23T13:56:24;100765.81;;;17.46;54.71
61874;BME280;49692;55.052;73.310;2022-09-23T13:58:51;100760.25;;;17.35;55.10
61874;BME280;49692;55.052;73.310;2022-09-23T14:04:24;100760.84;;;17.40;54.51
61874;BME280;49692;55.052;73.310;2022-09-23T14:06:52;100760.84;;;17.24;54.85
61874;BME280;49692;55.052;73.310;2022-09-23T14:09:42;100773.84;;;17.29;55.02
61874;BME280;49692;55.052;73.310;2022-09-23T14:12:16;100763.56;;;17.07;55.14
61874;BME280;49692;55.052;73.310;2022-09-23T14:14:53;100768.88;;;17.07;55.44
61874;BME280;49692;55.052;73.310;2022-09-23T14:20:47;100762.78;;;17.05;55.40
61874;BME280;49692;55.052;73.310;2022-09-23T14:23:21;100769.63;;;16.93;55.45
61874;BME280;49692;55.052;73.310;2022-09-23T14:25:50;100763.91;;;16.83;55.54
61874;BME280;49692;55.052;73.310;2022-09-23T14:28:22;100761.56;;;16.77;55.81
61874;BME280;49692;55.052;73.310;2022-09-23T14:31:14;100762.59;;;16.74;55.75
61874;BME280;49692;55.052;73.310;2022-09-23T14:33:42;100774.84;;;16.77;56.52
61874;BME280;49692;55.052;73.310;2022-09-23T14:36:13;100760.03;;;16.73;56.63
61874;BME280;49692;55.052;73.310;2022-09-23T14:39:07;100756.38;;;16.58;56.96
61874;BME280;49692;55.052;73.310;2022-09-23T14:41:45;100761.94;;;16.53;57.10
61874;BME280;49692;55.052;73.310;2022-09-23T14:44:21;100748.66;;;16.53;57.16
61874;BME280;49692;55.052;73.310;2022-09-23T14:47:13;100757.81;;;16.47;57.71
61874;BME280;49692;55.052;73.310;2022-09-23T14:49:48;100756.09;;;16.46;58.16
61874;BME280;49692;55.052;73.310;2022-09-23T14:52:51;100754.06;;;16.34;58.49
61874;BME280;49692;55.052;73.310;2022-09-23T14:55:19;100758.59;;;16.32;58.93
61874;BME280;49692;55.052;73.310;2022-09-23T14:57:46;100757.31;;;16.21;59.55
61874;BME280;49692;55.052;73.310;2022-09-23T15:00:23;100752.19;;;16.18;58.88
61874;BME280;49692;55.052;73.310;2022-09-23T15:03:00;100766.00;;;16.25;58.92
61874;BME280;49692;55.052;73.310;2022-09-23T15:05:43;100764.44;;;16.21;59.07
61874;BME280;49692;55.052;73.310;2022-09-23T15:08:20;100766.59;;;16.13;60.10
61874;BME280;49692;55.052;73.310;2022-09-23T15:10:53;100760.94;;;16.03;60.16
61874;BME280;49692;55.052;73.310;2022-09-23T15:13:29;100765.22;;;16.05;59.96
61874;BME280;49692;55.052;73.310;2022-09-23T15:16:15;100761.63;;;16.06;59.93
61874;BME280;49692;55.052;73.310;2022-09-23T15:18:59;100760.94;;;16.03;60.25
61874;BME280;49692;55.052;73.310;2022-09-23T15:25:13;100758.19;;;16.04;59.93
61874;BME280;49692;55.052;73.310;2022-09-23T15:28:24;100748.84;;;15.97;60.26
61874;BME280;49692;55.052;73.310;2022-09-23T15:40:42;100749.25;;;15.70;59.86
61874;BME280;49692;55.052;73.310;2022-09-23T15:43:24;100746.31;;;15.76;60.55
61874;BME280;49692;55.052;73.310;2022-09-23T15:46:26;100740.84;;;15.80;59.60